sensor_id;sensor_type;location;lat;lon;timestamp;P1;durP1;ratioP1;P2;durP2;ratioP2
69334;SDS011;56477;52.742;15.242;2023-05-10T00:00:35;8.65;;;3.63;;
69334;SDS011;56477;52.742;15.242;2023-05-10T00:03:09;6.95;;;3.35;;
69334;SDS011;56477;52.742;15.242;2023-05-10T00:05:35;8.05;;;3.35;;
69334;SDS011;56477;52.742;15.242;2023-05-10T00:08:02;8.77;;;4.00;;
69334;SDS011;56477;52.742;15.242;2023-05-10T00:10:27;9.13;;;4.18;;
69334;SDS011;56477;52.742;15.242;2023-05-10T00:12:54;6.88;;;3.25;;
69334;SDS011;56477;52.742;15.242;2023-05-10T00:15:19;9.43;;;3.97;;
69334;SDS011;56477;52.742;15.242;2023-05-10T00:17:46;7.00;;;3.00;;
69334;SDS011;56477;52.742;15.242;2023-05-10T00:20:11;7.05;;;3.97;;
69334;SDS011;56477;52.742;15.242;2023-05-10T00:22:38;6.93;;;3.50;;
69334;SDS011;56477;52.742;15.242;2023-05-10T00:25:03;8.27;;;4.03;;
69334;SDS011;56477;52.742;15.242;2023-05-10T00:27:30;8.43;;;3.35;;
69334;SDS011;56477;52.742;15.242;2023-05-10T00:29:56;10.40;;;3.78;;
69334;SDS011;56477;52.742;15.242;2023-05-10T00:32:22;6.10;;;3.70;;
69334;SDS011;56477;52.742;15.242;2023-05-10T00:34:48;4.93;;;3.25;;
69334;SDS011;56477;52.742;15.242;2023-05-10T00:37:14;7.22;;;3.72;;
69334;SDS011;56477;52.742;15.242;2023-05-10T00:39:40;7.93;;;3.47;;
69334;SDS011;56477;52.742;15.242;2023-05-10T00:42:06;6.82;;;3.40;;
69334;SDS011;56477;52.742;15.242;2023-05-10T00:44:31;8.48;;;3.83;;
69334;SDS011;56477;52.742;15.242;2023-05-10T00:46:58;8.60;;;3.72;;
69334;SDS011;56477;52.742;15.242;2023-05-10T00:49:24;7.40;;;3.97;;
69334;SDS011;56477;52.742;15.242;2023-05-10T00:51:51;10.13;;;3.63;;
69334;SDS011;56477;52.742;15.242;2023-05-10T00:54:17;7.90;;;4.18;;
69334;SDS011;56477;52.742;15.242;2023-05-10T00:56:43;9.20;;;3.65;;
69334;SDS011;56477;52.742;15.242;2023-05-10T00:59:17;9.23;;;3.67;;
69334;SDS011;56477;52.742;15.242;2023-05-10T01:01:44;13.80;;;3.93;;
69334;SDS011;56477;52.742;15.242;2023-05-10T01:04:11;7.82;;;4.07;;
69334;SDS011;56477;52.742;15.242;2023-05-10T01:06:41;8.70;;;3.83;;
69334;SDS011;56477;52.742;15.242;2023-05-10T01:09:08;9.70;;;4.00;;
69334;SDS011;56477;52.742;15.242;2023-05-10T01:11:34;8.70;;;4.00;;
69334;SDS011;56477;52.742;15.242;2023-05-10T01:14:01;7.27;;;3.43;;
69334;SDS011;56477;52.742;15.242;2023-05-10T01:16:29;11.35;;;3.90;;
69334;SDS011;56477;52.742;15.242;2023-05-10T01:18:58;7.00;;;3.95;;
69334;SDS011;56477;52.742;15.242;2023-05-10T01:24:43;9.07;;;3.70;;
69334;SDS011;56477;52.742;15.242;2023-05-10T01:30:11;9.45;;;4.00;;
69334;SDS011;56477;52.742;15.242;2023-05-10T01:33:11;7.95;;;4.25;;
69334;SDS011;56477;52.742;15.242;2023-05-10T01:38:32;8.55;;;4.18;;
69334;SDS011;56477;52.742;15.242;2023-05-10T01:41:18;8.23;;;3.37;;
69334;SDS011;56477;52.742;15.242;2023-05-10T01:43:53;6.55;;;3.90;;
69334;SDS011;56477;52.742;15.242;2023-05-10T01:46:24;7.35;;;3.97;;
69334;SDS011;56477;52.742;15.242;2023-05-10T01:48:57;7.72;;;3.88;;
69334;SDS011;56477;52.742;15.242;2023-05-10T01:51:27;8.63;;;4.07;;
69334;SDS011;56477;52.742;15.242;2023-05-10T01:54:03;7.17;;;3.83;;
69334;SDS011;56477;52.742;15.242;2023-05-10T01:56:32;8.30;;;3.95;;
69334;SDS011;56477;52.742;15.242;2023-05-10T01:59:00;7.63;;;3.83;;
69334;SDS011;56477;52.742;15.242;2023-05-10T02:01:32;7.30;;;3.70;;
69334;SDS011;56477;52.742;15.242;2023-05-10T02:04:00;11.75;;;3.80;;
69334;SDS011;56477;52.742;15.242;2023-05-10T02:06:27;7.57;;;3.70;;
69334;SDS011;56477;52.742;15.242;2023-05-10T02:08:53;9.55;;;4.15;;
69334;SDS011;56477;52.742;15.242;2023-05-10T02:11:21;8.27;;;4.50;;
69334;SDS011;56477;52.742;15.242;2023-05-10T02:13:49;9.35;;;4.07;;
69334;SDS011;56477;52.742;15.242;2023-05-10T02:16:17;8.90;;;5.15;;
69334;SDS011;56477;52.742;15.242;2023-05-10T02:18:47;8.63;;;4.17;;
69334;SDS011;56477;52.742;15.242;2023-05-10T02:21:14;8.40;;;4.10;;
69334;SDS011;56477;52.742;15.242;2023-05-10T02:23:42;7.95;;;3.92;;
69334;SDS011;56477;52.742;15.242;2023-05-10T02:26:10;7.97;;;4.22;;
69334;SDS011;56477;52.742;15.242;2023-05-10T02:28:37;9.05;;;4.28;;
69334;SDS011;56477;52.742;15.242;2023-05-10T02:31:05;9.10;;;4.10;;
69334;SDS011;56477;52.742;15.242;2023-05-10T02:33:33;8.02;;;4.60;;
69334;SDS011;56477;52.742;15.242;2023-05-10T02:36:00;10.88;;;4.40;;
69334;SDS011;56477;52.742;15.242;2023-05-10T02:38:28;11.75;;;4.80;;
69334;SDS011;56477;52.742;15.242;2023-05-10T02:40:55;8.25;;;4.55;;
69334;SDS011;56477;52.742;15.242;2023-05-10T02:43:22;8.60;;;4.50;;
69334;SDS011;56477;52.742;15.242;2023-05-10T02:45:49;10.48;;;4.43;;
69334;SDS011;56477;52.742;15.242;2023-05-10T02:48:16;11.93;;;5.13;;
69334;SDS011;56477;52.742;15.242;2023-05-10T02:50:45;9.82;;;4.70;;
69334;SDS011;56477;52.742;15.242;2023-05-10T02:53:23;9.38;;;5.10;;
69334;SDS011;56477;52.742;15.242;2023-05-10T02:55:57;9.63;;;4.53;;
69334;SDS011;56477;52.742;15.242;2023-05-10T02:58:26;11.68;;;4.90;;
69334;SDS011;56477;52.742;15.242;2023-05-10T03:00:52;9.00;;;4.55;;
69334;SDS011;56477;52.742;15.242;2023-05-10T03:03:19;8.70;;;5.07;;
69334;SDS011;56477;52.742;15.242;2023-05-10T03:05:46;11.38;;;4.97;;
69334;SDS011;56477;52.742;15.242;2023-05-10T03:08:12;10.07;;;4.93;;
69334;SDS011;56477;52.742;15.242;2023-05-10T03:10:41;10.90;;;4.75;;
69334;SDS011;56477;52.742;15.242;2023-05-10T03:18:44;11.18;;;5.07;;
69334;SDS011;56477;52.742;15.242;2023-05-10T03:21:16;10.00;;;5.17;;
69334;SDS011;56477;52.742;15.242;2023-05-10T03:23:46;12.43;;;5.20;;
69334;SDS011;56477;52.742;15.242;2023-05-10T03:26:17;10.48;;;4.68;;
69334;SDS011;56477;52.742;15.242;2023-05-10T03:28:52;10.20;;;5.10;;
69334;SDS011;56477;52.742;15.242;2023-05-10T03:31:19;15.85;;;5.78;;
69334;SDS011;56477;52.742;15.242;2023-05-10T03:33:47;10.00;;;5.27;;
69334;SDS011;56477;52.742;15.242;2023-05-10T03:36:16;12.20;;;5.43;;
69334;SDS011;56477;52.742;15.242;2023-05-10T03:38:42;11.57;;;5.55;;
69334;SDS011;56477;52.742;15.242;2023-05-10T03:41:08;12.10;;;5.22;;
69334;SDS011;56477;52.742;15.242;2023-05-10T03:43:34;11.90;;;4.77;;
69334;SDS011;56477;52.742;15.242;2023-05-10T03:46:04;11.50;;;4.85;;
69334;SDS011;56477;52.742;15.242;2023-05-10T03:48:32;11.18;;;4.70;;
69334;SDS011;56477;52.742;15.242;2023-05-10T03:50:58;11.07;;;4.55;;
69334;SDS011;56477;52.742;15.242;2023-05-10T03:53:25;9.75;;;4.82;;
69334;SDS011;56477;52.742;15.242;2023-05-10T03:55:50;10.10;;;5.03;;
69334;SDS011;56477;52.742;15.242;2023-05-10T03:58:17;12.68;;;4.80;;
69334;SDS011;56477;52.742;15.242;2023-05-10T04:00:43;9.63;;;4.63;;
69334;SDS011;56477;52.742;15.242;2023-05-10T04:03:11;7.10;;;4.18;;
69334;SDS011;56477;52.742;15.242;2023-05-10T04:05:37;10.45;;;4.93;;
69334;SDS011;56477;52.742;15.242;2023-05-10T04:08:04;7.37;;;4.10;;
69334;SDS011;56477;52.742;15.242;2023-05-10T04:10:30;10.20;;;4.40;;
69334;SDS011;56477;52.742;15.242;2023-05-10T04:12:56;9.93;;;5.00;;
69334;SDS011;56477;52.742;15.242;2023-05-10T04:15:22;12.30;;;4.75;;
69334;SDS011;56477;52.742;15.242;2023-05-10T04:17:49;11.73;;;4.93;;
69334;SDS011;56477;52.742;15.242;2023-05-10T04:20:15;10.45;;;4.65;;
69334;SDS011;56477;52.742;15.242;2023-05-10T04:22:42;10.25;;;5.20;;
69334;SDS011;56477;52.742;15.242;2023-05-10T04:25:08;8.07;;;4.25;;
69334;SDS011;56477;52.742;15.242;2023-05-10T04:27:34;10.57;;;4.35;;
69334;SDS011;56477;52.742;15.242;2023-05-10T04:30:00;9.57;;;4.47;;
69334;SDS011;56477;52.742;15.242;2023-05-10T04:32:26;10.05;;;4.10;;
69334;SDS011;56477;52.742;15.242;2023-05-10T04:34:53;8.95;;;4.65;;
69334;SDS011;56477;52.742;15.242;2023-05-10T04:37:19;9.82;;;4.63;;
69334;SDS011;56477;52.742;15.242;2023-05-10T04:39:46;12.27;;;4.10;;
69334;SDS011;56477;52.742;15.242;2023-05-10T04:42:12;11.52;;;4.70;;
69334;SDS011;56477;52.742;15.242;2023-05-10T04:44:40;12.32;;;4.72;;
69334;SDS011;56477;52.742;15.242;2023-05-10T04:47:06;10.40;;;4.47;;
69334;SDS011;56477;52.742;15.242;2023-05-10T04:49:32;8.60;;;4.73;;
69334;SDS011;56477;52.742;15.242;2023-05-10T04:51:58;9.88;;;4.47;;
69334;SDS011;56477;52.742;15.242;2023-05-10T04:54:24;14.23;;;4.80;;
69334;SDS011;56477;52.742;15.242;2023-05-10T04:56:50;6.43;;;3.00;;
69334;SDS011;56477;52.742;15.242;2023-05-10T04:59:16;11.63;;;4.40;;
69334;SDS011;56477;52.742;15.242;2023-05-10T05:01:42;7.07;;;3.70;;
69334;SDS011;56477;52.742;15.242;2023-05-10T05:04:08;9.43;;;4.50;;
69334;SDS011;56477;52.742;15.242;2023-05-10T05:06:34;9.55;;;4.18;;
69334;SDS011;56477;52.742;15.242;2023-05-10T05:09:00;13.40;;;5.03;;
69334;SDS011;56477;52.742;15.242;2023-05-10T05:11:26;10.30;;;5.10;;
69334;SDS011;56477;52.742;15.242;2023-05-10T05:13:52;10.90;;;4.55;;
69334;SDS011;56477;52.742;15.242;2023-05-10T05:16:18;10.73;;;5.22;;
69334;SDS011;56477;52.742;15.242;2023-05-10T05:18:44;11.17;;;4.67;;
69334;SDS011;56477;52.742;15.242;2023-05-10T05:21:14;8.05;;;3.97;;
69334;SDS011;56477;52.742;15.242;2023-05-10T05:23:41;9.13;;;4.20;;
69334;SDS011;56477;52.742;15.242;2023-05-10T05:26:07;9.02;;;4.90;;
69334;SDS011;56477;52.742;15.242;2023-05-10T05:28:33;8.87;;;4.30;;
69334;SDS011;56477;52.742;15.242;2023-05-10T05:31:03;9.30;;;4.80;;
69334;SDS011;56477;52.742;15.242;2023-05-10T05:33:29;12.73;;;5.28;;
69334;SDS011;56477;52.742;15.242;2023-05-10T05:35:55;11.48;;;4.30;;
69334;SDS011;56477;52.742;15.242;2023-05-10T05:38:22;10.57;;;4.47;;
69334;SDS011;56477;52.742;15.242;2023-05-10T05:40:48;7.93;;;3.85;;
69334;SDS011;56477;52.742;15.242;2023-05-10T05:43:14;11.55;;;4.45;;
69334;SDS011;56477;52.742;15.242;2023-05-10T05:45:40;8.82;;;4.25;;
69334;SDS011;56477;52.742;15.242;2023-05-10T05:48:06;9.90;;;4.13;;
69334;SDS011;56477;52.742;15.242;2023-05-10T05:50:32;8.82;;;4.25;;
69334;SDS011;56477;52.742;15.242;2023-05-10T05:52:58;8.07;;;4.05;;
69334;SDS011;56477;52.742;15.242;2023-05-10T05:55:24;16.55;;;5.63;;
69334;SDS011;56477;52.742;15.242;2023-05-10T05:57:51;7.30;;;3.20;;
69334;SDS011;56477;52.742;15.242;2023-05-10T06:00:17;11.23;;;4.30;;
69334;SDS011;56477;52.742;15.242;2023-05-10T06:02:43;9.10;;;3.50;;
69334;SDS011;56477;52.742;15.242;2023-05-10T06:05:09;8.05;;;3.83;;
69334;SDS011;56477;52.742;15.242;2023-05-10T06:07:35;8.83;;;4.47;;
69334;SDS011;56477;52.742;15.242;2023-05-10T06:10:01;8.10;;;3.80;;
69334;SDS011;56477;52.742;15.242;2023-05-10T06:12:28;7.32;;;3.83;;
69334;SDS011;56477;52.742;15.242;2023-05-10T06:14:54;10.50;;;4.10;;
69334;SDS011;56477;52.742;15.242;2023-05-10T06:17:20;7.47;;;3.37;;
69334;SDS011;56477;52.742;15.242;2023-05-10T06:19:47;8.15;;;4.15;;
69334;SDS011;56477;52.742;15.242;2023-05-10T06:22:13;7.55;;;3.63;;
69334;SDS011;56477;52.742;15.242;2023-05-10T06:24:38;7.63;;;3.78;;
69334;SDS011;56477;52.742;15.242;2023-05-10T06:27:05;8.80;;;4.20;;
69334;SDS011;56477;52.742;15.242;2023-05-10T06:29:31;7.35;;;4.47;;
69334;SDS011;56477;52.742;15.242;2023-05-10T06:31:57;9.38;;;3.72;;
69334;SDS011;56477;52.742;15.242;2023-05-10T06:34:24;6.75;;;3.65;;
69334;SDS011;56477;52.742;15.242;2023-05-10T06:36:50;6.47;;;3.08;;
69334;SDS011;56477;52.742;15.242;2023-05-10T06:39:17;6.83;;;3.27;;
69334;SDS011;56477;52.742;15.242;2023-05-10T06:41:43;6.75;;;3.40;;
69334;SDS011;56477;52.742;15.242;2023-05-10T06:44:09;7.75;;;3.90;;
69334;SDS011;56477;52.742;15.242;2023-05-10T06:46:35;7.88;;;3.70;;
69334;SDS011;56477;52.742;15.242;2023-05-10T06:49:01;8.43;;;3.77;;
69334;SDS011;56477;52.742;15.242;2023-05-10T06:51:27;7.65;;;3.40;;
69334;SDS011;56477;52.742;15.242;2023-05-10T06:53:53;8.90;;;3.35;;
69334;SDS011;56477;52.742;15.242;2023-05-10T06:56:19;8.30;;;3.47;;
69334;SDS011;56477;52.742;15.242;2023-05-10T06:58:47;8.02;;;3.40;;
69334;SDS011;56477;52.742;15.242;2023-05-10T07:01:13;8.93;;;3.00;;
69334;SDS011;56477;52.742;15.242;2023-05-10T07:03:39;6.47;;;3.20;;
69334;SDS011;56477;52.742;15.242;2023-05-10T07:06:06;6.55;;;3.25;;
69334;SDS011;56477;52.742;15.242;2023-05-10T07:08:33;8.15;;;3.50;;
69334;SDS011;56477;52.742;15.242;2023-05-10T07:11:00;6.60;;;3.27;;
69334;SDS011;56477;52.742;15.242;2023-05-10T07:13:33;4.93;;;3.10;;
69334;SDS011;56477;52.742;15.242;2023-05-10T07:16:00;5.05;;;3.17;;
69334;SDS011;56477;52.742;15.242;2023-05-10T07:18:27;9.13;;;3.38;;
69334;SDS011;56477;52.742;15.242;2023-05-10T07:20:54;6.97;;;3.25;;
69334;SDS011;56477;52.742;15.242;2023-05-10T07:23:20;7.20;;;3.53;;
69334;SDS011;56477;52.742;15.242;2023-05-10T07:25:47;5.53;;;3.45;;
69334;SDS011;56477;52.742;15.242;2023-05-10T07:28:14;6.25;;;3.28;;
69334;SDS011;56477;52.742;15.242;2023-05-10T07:30:41;4.78;;;3.15;;
69334;SDS011;56477;52.742;15.242;2023-05-10T07:33:07;5.45;;;3.05;;
69334;SDS011;56477;52.742;15.242;2023-05-10T07:35:34;5.47;;;3.20;;
69334;SDS011;56477;52.742;15.242;2023-05-10T07:38:00;5.63;;;3.05;;
69334;SDS011;56477;52.742;15.242;2023-05-10T07:40:27;6.68;;;3.10;;
69334;SDS011;56477;52.742;15.242;2023-05-10T07:42:54;4.70;;;2.65;;
69334;SDS011;56477;52.742;15.242;2023-05-10T07:45:20;6.10;;;2.97;;
69334;SDS011;56477;52.742;15.242;2023-05-10T07:47:47;5.67;;;2.47;;
69334;SDS011;56477;52.742;15.242;2023-05-10T07:50:13;6.20;;;2.80;;
69334;SDS011;56477;52.742;15.242;2023-05-10T07:52:39;4.32;;;2.70;;
69334;SDS011;56477;52.742;15.242;2023-05-10T07:55:05;7.75;;;3.42;;
69334;SDS011;56477;52.742;15.242;2023-05-10T07:57:35;3.93;;;2.47;;
69334;SDS011;56477;52.742;15.242;2023-05-10T08:00:02;4.53;;;2.80;;
69334;SDS011;56477;52.742;15.242;2023-05-10T08:02:28;7.20;;;2.70;;
69334;SDS011;56477;52.742;15.242;2023-05-10T08:04:55;5.05;;;2.80;;
69334;SDS011;56477;52.742;15.242;2023-05-10T08:07:21;3.22;;;2.30;;
69334;SDS011;56477;52.742;15.242;2023-05-10T08:09:47;6.10;;;2.97;;
69334;SDS011;56477;52.742;15.242;2023-05-10T08:12:13;6.47;;;2.60;;
69334;SDS011;56477;52.742;15.242;2023-05-10T08:14:39;4.40;;;2.53;;
69334;SDS011;56477;52.742;15.242;2023-05-10T08:17:05;4.03;;;3.10;;
69334;SDS011;56477;52.742;15.242;2023-05-10T08:19:31;7.40;;;2.97;;
69334;SDS011;56477;52.742;15.242;2023-05-10T08:21:57;4.63;;;2.53;;
69334;SDS011;56477;52.742;15.242;2023-05-10T08:24:23;6.38;;;2.80;;
69334;SDS011;56477;52.742;15.242;2023-05-10T08:26:49;3.95;;;1.65;;
69334;SDS011;56477;52.742;15.242;2023-05-10T08:29:15;7.07;;;2.87;;
69334;SDS011;56477;52.742;15.242;2023-05-10T08:31:41;4.90;;;1.85;;
69334;SDS011;56477;52.742;15.242;2023-05-10T08:34:07;3.97;;;2.13;;
69334;SDS011;56477;52.742;15.242;2023-05-10T08:36:33;4.77;;;2.20;;
69334;SDS011;56477;52.742;15.242;2023-05-10T08:38:59;3.85;;;2.17;;
69334;SDS011;56477;52.742;15.242;2023-05-10T08:41:25;11.05;;;2.83;;
69334;SDS011;56477;52.742;15.242;2023-05-10T08:43:52;6.38;;;2.30;;
69334;SDS011;56477;52.742;15.242;2023-05-10T08:46:19;6.65;;;2.17;;
69334;SDS011;56477;52.742;15.242;2023-05-10T08:48:46;5.67;;;2.60;;
69334;SDS011;56477;52.742;15.242;2023-05-10T08:51:14;3.85;;;1.77;;
69334;SDS011;56477;52.742;15.242;2023-05-10T08:53:43;5.78;;;2.10;;
69334;SDS011;56477;52.742;15.242;2023-05-10T08:56:09;6.28;;;2.58;;
69334;SDS011;56477;52.742;15.242;2023-05-10T08:58:36;6.18;;;2.47;;
69334;SDS011;56477;52.742;15.242;2023-05-10T09:01:03;4.17;;;2.57;;
69334;SDS011;56477;52.742;15.242;2023-05-10T09:03:30;5.32;;;2.40;;
69334;SDS011;56477;52.742;15.242;2023-05-10T09:05:57;6.05;;;2.05;;
69334;SDS011;56477;52.742;15.242;2023-05-10T09:08:24;3.13;;;1.75;;
69334;SDS011;56477;52.742;15.242;2023-05-10T09:10:54;6.18;;;2.10;;
69334;SDS011;56477;52.742;15.242;2023-05-10T09:13:21;3.53;;;1.90;;
69334;SDS011;56477;52.742;15.242;2023-05-10T09:15:48;2.70;;;1.98;;
69334;SDS011;56477;52.742;15.242;2023-05-10T09:18:14;5.38;;;2.08;;
69334;SDS011;56477;52.742;15.242;2023-05-10T09:20:40;6.60;;;2.10;;
69334;SDS011;56477;52.742;15.242;2023-05-10T09:23:07;3.27;;;1.80;;
69334;SDS011;56477;52.742;15.242;2023-05-10T09:25:33;4.47;;;2.05;;
69334;SDS011;56477;52.742;15.242;2023-05-10T09:27:59;8.15;;;2.33;;
69334;SDS011;56477;52.742;15.242;2023-05-10T09:30:26;4.10;;;1.95;;
69334;SDS011;56477;52.742;15.242;2023-05-10T09:32:54;7.18;;;2.47;;
69334;SDS011;56477;52.742;15.242;2023-05-10T09:35:21;9.07;;;1.93;;
69334;SDS011;56477;52.742;15.242;2023-05-10T09:37:50;2.88;;;1.75;;
69334;SDS011;56477;52.742;15.242;2023-05-10T09:40:22;3.53;;;2.35;;
69334;SDS011;56477;52.742;15.242;2023-05-10T09:42:52;5.10;;;1.90;;
69334;SDS011;56477;52.742;15.242;2023-05-10T09:45:18;3.97;;;1.95;;
69334;SDS011;56477;52.742;15.242;2023-05-10T09:47:45;6.63;;;2.43;;
69334;SDS011;56477;52.742;15.242;2023-05-10T09:50:11;5.22;;;1.92;;
69334;SDS011;56477;52.742;15.242;2023-05-10T09:55:13;3.47;;;1.27;;
69334;SDS011;56477;52.742;15.242;2023-05-10T09:57:40;3.70;;;1.95;;
69334;SDS011;56477;52.742;15.242;2023-05-10T10:00:06;4.57;;;2.20;;
69334;SDS011;56477;52.742;15.242;2023-05-10T10:02:33;4.63;;;2.30;;
69334;SDS011;56477;52.742;15.242;2023-05-10T10:05:02;5.47;;;2.50;;
69334;SDS011;56477;52.742;15.242;2023-05-10T10:07:29;5.05;;;2.22;;
69334;SDS011;56477;52.742;15.242;2023-05-10T10:09:55;3.20;;;2.10;;
69334;SDS011;56477;52.742;15.242;2023-05-10T10:12:21;3.67;;;2.08;;
69334;SDS011;56477;52.742;15.242;2023-05-10T10:14:47;5.20;;;2.08;;
69334;SDS011;56477;52.742;15.242;2023-05-10T10:17:16;3.38;;;1.67;;
69334;SDS011;56477;52.742;15.242;2023-05-10T10:19:42;5.43;;;2.05;;
69334;SDS011;56477;52.742;15.242;2023-05-10T10:22:09;4.63;;;2.20;;
69334;SDS011;56477;52.742;15.242;2023-05-10T10:24:38;3.92;;;2.00;;
69334;SDS011;56477;52.742;15.242;2023-05-10T10:27:13;5.90;;;2.10;;
69334;SDS011;56477;52.742;15.242;2023-05-10T10:32:27;3.65;;;2.00;;
69334;SDS011;56477;52.742;15.242;2023-05-10T10:35:15;3.97;;;2.20;;
69334;SDS011;56477;52.742;15.242;2023-05-10T10:37:45;4.05;;;2.00;;
69334;SDS011;56477;52.742;15.242;2023-05-10T10:40:28;5.82;;;2.65;;
69334;SDS011;56477;52.742;15.242;2023-05-10T10:42:58;4.53;;;2.20;;
69334;SDS011;56477;52.742;15.242;2023-05-10T10:46:09;5.25;;;2.60;;
69334;SDS011;56477;52.742;15.242;2023-05-10T10:48:34;6.07;;;4.13;;
69334;SDS011;56477;52.742;15.242;2023-05-10T10:51:01;5.30;;;2.75;;
69334;SDS011;56477;52.742;15.242;2023-05-10T10:53:28;8.40;;;1.85;;
69334;SDS011;56477;52.742;15.242;2023-05-10T10:56:15;6.18;;;1.88;;
69334;SDS011;56477;52.742;15.242;2023-05-10T10:58:41;3.08;;;1.45;;
69334;SDS011;56477;52.742;15.242;2023-05-10T11:01:14;7.87;;;2.33;;
69334;SDS011;56477;52.742;15.242;2023-05-10T11:04:04;3.78;;;1.73;;
69334;SDS011;56477;52.742;15.242;2023-05-10T11:06:40;4.10;;;2.08;;
69334;SDS011;56477;52.742;15.242;2023-05-10T11:09:06;6.55;;;2.55;;
69334;SDS011;56477;52.742;15.242;2023-05-10T11:11:34;8.90;;;2.72;;
69334;SDS011;56477;52.742;15.242;2023-05-10T11:14:04;11.50;;;2.23;;
69334;SDS011;56477;52.742;15.242;2023-05-10T11:16:42;6.70;;;1.83;;
69334;SDS011;56477;52.742;15.242;2023-05-10T11:19:13;4.63;;;2.20;;
69334;SDS011;56477;52.742;15.242;2023-05-10T11:21:44;5.20;;;2.22;;
69334;SDS011;56477;52.742;15.242;2023-05-10T11:24:31;3.38;;;1.80;;
69334;SDS011;56477;52.742;15.242;2023-05-10T11:26:58;3.60;;;2.03;;
69334;SDS011;56477;52.742;15.242;2023-05-10T11:29:26;6.13;;;2.27;;
69334;SDS011;56477;52.742;15.242;2023-05-10T11:31:52;5.65;;;1.92;;
69334;SDS011;56477;52.742;15.242;2023-05-10T11:34:25;5.22;;;1.92;;
69334;SDS011;56477;52.742;15.242;2023-05-10T11:36:52;3.83;;;1.70;;
69334;SDS011;56477;52.742;15.242;2023-05-10T11:39:20;8.67;;;2.07;;
69334;SDS011;56477;52.742;15.242;2023-05-10T11:41:47;5.00;;;2.60;;
69334;SDS011;56477;52.742;15.242;2023-05-10T11:44:15;4.03;;;2.20;;
69334;SDS011;56477;52.742;15.242;2023-05-10T11:46:41;3.58;;;2.00;;
69334;SDS011;56477;52.742;15.242;2023-05-10T11:49:07;3.63;;;2.10;;
69334;SDS011;56477;52.742;15.242;2023-05-10T11:51:34;7.32;;;2.42;;
69334;SDS011;56477;52.742;15.242;2023-05-10T11:54:06;4.63;;;2.43;;
69334;SDS011;56477;52.742;15.242;2023-05-10T11:56:36;3.53;;;1.90;;
69334;SDS011;56477;52.742;15.242;2023-05-10T11:59:03;5.03;;;2.15;;
69334;SDS011;56477;52.742;15.242;2023-05-10T12:01:30;5.78;;;1.88;;
69334;SDS011;56477;52.742;15.242;2023-05-10T12:03:57;3.67;;;2.13;;
69334;SDS011;56477;52.742;15.242;2023-05-10T12:06:28;4.03;;;1.87;;
69334;SDS011;56477;52.742;15.242;2023-05-10T12:08:56;4.47;;;1.90;;
69334;SDS011;56477;52.742;15.242;2023-05-10T12:11:26;4.78;;;2.20;;
69334;SDS011;56477;52.742;15.242;2023-05-10T12:13:54;3.63;;;2.30;;
69334;SDS011;56477;52.742;15.242;2023-05-10T12:16:25;4.82;;;2.53;;
69334;SDS011;56477;52.742;15.242;2023-05-10T12:18:55;6.13;;;1.83;;
69334;SDS011;56477;52.742;15.242;2023-05-10T12:21:22;4.47;;;2.10;;
69334;SDS011;56477;52.742;15.242;2023-05-10T12:23:51;8.43;;;2.63;;
69334;SDS011;56477;52.742;15.242;2023-05-10T12:26:18;3.92;;;1.83;;
69334;SDS011;56477;52.742;15.242;2023-05-10T12:28:46;4.80;;;2.50;;
69334;SDS011;56477;52.742;15.242;2023-05-10T12:31:12;4.28;;;2.50;;
69334;SDS011;56477;52.742;15.242;2023-05-10T12:33:39;4.03;;;2.33;;
69334;SDS011;56477;52.742;15.242;2023-05-10T12:36:10;3.20;;;2.10;;
69334;SDS011;56477;52.742;15.242;2023-05-10T12:38:41;4.50;;;2.58;;
69334;SDS011;56477;52.742;15.242;2023-05-10T12:41:12;3.00;;;2.20;;
69334;SDS011;56477;52.742;15.242;2023-05-10T12:43:39;4.28;;;2.30;;
69334;SDS011;56477;52.742;15.242;2023-05-10T12:46:13;5.47;;;2.42;;
69334;SDS011;56477;52.742;15.242;2023-05-10T12:48:40;3.67;;;2.30;;
69334;SDS011;56477;52.742;15.242;2023-05-10T12:51:07;4.30;;;2.07;;
69334;SDS011;56477;52.742;15.242;2023-05-10T12:53:35;4.45;;;2.00;;
69334;SDS011;56477;52.742;15.242;2023-05-10T12:56:02;6.93;;;2.45;;
69334;SDS011;56477;52.742;15.242;2023-05-10T12:58:28;6.18;;;2.20;;
69334;SDS011;56477;52.742;15.242;2023-05-10T13:00:53;3.80;;;2.50;;
69334;SDS011;56477;52.742;15.242;2023-05-10T13:03:22;3.65;;;2.03;;
69334;SDS011;56477;52.742;15.242;2023-05-10T13:05:48;4.93;;;2.20;;
69334;SDS011;56477;52.742;15.242;2023-05-10T13:08:14;9.20;;;2.85;;
69334;SDS011;56477;52.742;15.242;2023-05-10T13:10:40;11.27;;;2.42;;
69334;SDS011;56477;52.742;15.242;2023-05-10T13:13:06;4.50;;;2.20;;
69334;SDS011;56477;52.742;15.242;2023-05-10T13:15:35;3.00;;;1.80;;
69334;SDS011;56477;52.742;15.242;2023-05-10T13:18:01;5.13;;;2.33;;
69334;SDS011;56477;52.742;15.242;2023-05-10T13:20:27;9.35;;;2.53;;
69334;SDS011;56477;52.742;15.242;2023-05-10T13:22:53;3.03;;;2.10;;
69334;SDS011;56477;52.742;15.242;2023-05-10T13:25:19;4.53;;;2.45;;
69334;SDS011;56477;52.742;15.242;2023-05-10T13:27:46;5.73;;;2.30;;
69334;SDS011;56477;52.742;15.242;2023-05-10T13:30:11;6.83;;;2.63;;
69334;SDS011;56477;52.742;15.242;2023-05-10T13:32:38;7.18;;;2.35;;
69334;SDS011;56477;52.742;15.242;2023-05-10T13:35:04;10.05;;;2.67;;
69334;SDS011;56477;52.742;15.242;2023-05-10T13:37:31;6.53;;;2.03;;
69334;SDS011;56477;52.742;15.242;2023-05-10T13:40:00;4.87;;;2.60;;
69334;SDS011;56477;52.742;15.242;2023-05-10T13:42:27;9.27;;;2.63;;
69334;SDS011;56477;52.742;15.242;2023-05-10T13:44:53;7.78;;;2.35;;
69334;SDS011;56477;52.742;15.242;2023-05-10T13:47:19;5.78;;;2.35;;
69334;SDS011;56477;52.742;15.242;2023-05-10T13:49:46;4.60;;;2.58;;
69334;SDS011;56477;52.742;15.242;2023-05-10T13:52:13;3.50;;;2.30;;
69334;SDS011;56477;52.742;15.242;2023-05-10T13:54:39;4.30;;;2.20;;
69334;SDS011;56477;52.742;15.242;2023-05-10T13:57:05;5.55;;;2.28;;
69334;SDS011;56477;52.742;15.242;2023-05-10T13:59:32;3.75;;;2.30;;
69334;SDS011;56477;52.742;15.242;2023-05-10T14:01:58;2.97;;;2.05;;
69334;SDS011;56477;52.742;15.242;2023-05-10T14:04:25;6.17;;;2.03;;
69334;SDS011;56477;52.742;15.242;2023-05-10T14:06:51;4.50;;;1.87;;
69334;SDS011;56477;52.742;15.242;2023-05-10T14:09:18;3.92;;;1.92;;
69334;SDS011;56477;52.742;15.242;2023-05-10T14:11:45;4.13;;;2.10;;
69334;SDS011;56477;52.742;15.242;2023-05-10T14:14:11;5.20;;;2.47;;
69334;SDS011;56477;52.742;15.242;2023-05-10T14:16:41;4.35;;;2.30;;
69334;SDS011;56477;52.742;15.242;2023-05-10T14:19:08;3.57;;;2.33;;
69334;SDS011;56477;52.742;15.242;2023-05-10T14:21:34;5.22;;;2.30;;
69334;SDS011;56477;52.742;15.242;2023-05-10T14:24:00;3.08;;;1.77;;
69334;SDS011;56477;52.742;15.242;2023-05-10T14:26:26;5.60;;;1.90;;
69334;SDS011;56477;52.742;15.242;2023-05-10T14:28:52;5.40;;;1.85;;
69334;SDS011;56477;52.742;15.242;2023-05-10T14:31:19;5.70;;;2.23;;
69334;SDS011;56477;52.742;15.242;2023-05-10T14:33:46;3.70;;;1.95;;
69334;SDS011;56477;52.742;15.242;2023-05-10T14:36:13;5.00;;;2.20;;
69334;SDS011;56477;52.742;15.242;2023-05-10T14:38:39;3.22;;;1.95;;
69334;SDS011;56477;52.742;15.242;2023-05-10T14:41:06;6.88;;;2.50;;
69334;SDS011;56477;52.742;15.242;2023-05-10T14:43:31;5.90;;;2.23;;
69334;SDS011;56477;52.742;15.242;2023-05-10T14:45:58;5.20;;;2.28;;
69334;SDS011;56477;52.742;15.242;2023-05-10T14:48:24;3.50;;;1.88;;
69334;SDS011;56477;52.742;15.242;2023-05-10T14:50:50;5.20;;;1.83;;
69334;SDS011;56477;52.742;15.242;2023-05-10T14:53:17;5.90;;;1.90;;
69334;SDS011;56477;52.742;15.242;2023-05-10T14:55:44;3.87;;;1.90;;